Time;durP1;ratioP1;P1;durP2;ratioP2;P2;SDS_P1;SDS_P2;PMS_P1;PMS_P2;Temp;Humidity;BMP_temperature;BMP_pressure;BME280_temperature;BME280_humidity;BME280_pressure;Samples;Min_cycle;Max_cycle;Signal;HPM_P1;HPM_P2
2023/10/01 00:01:40;;;;;;;;;;;;;;;18.35;38.58;100672.47;5070832;28;19916;-66
2023/10/01 00:04:07;;;;;;;;;;;;;;;18.38;38.46;100673.84;5055657;28;20065;-66
2023/10/01 00:06:36;;;;;;;;;;;;;;;18.37;38.52;100681.19;5071125;28;20655;-67
2023/10/01 00:09:05;;;;;;;;;;;;;;;18.40;38.37;100674.44;5070393;28;19920;-62
2023/10/01 00:11:32;;;;;;;;;;;;;;;18.33;38.66;100677.31;5070430;28;19913;-62
2023/10/01 00:13:58;;;;;;;;;;;;;;;18.33;38.84;100681.91;5071764;28;19995;-62
2023/10/01 00:16:24;;;;;;;;;;;;;;;18.28;39.27;100679.91;5081601;28;19986;-63
2023/10/01 00:18:51;;;;;;;;;;;;;;;18.26;39.10;100682.06;5083766;28;19928;-62
2023/10/01 00:21:17;;;;;;;;;;;;;;;18.25;38.87;100674.94;5073717;28;19912;-62
2023/10/01 00:23:43;;;;;;;;;;;;;;;18.19;39.22;100689.50;5073589;28;19912;-65
2023/10/01 00:26:10;;;;;;;;;;;;;;;18.12;39.23;100686.91;5070991;28;19917;-64
2023/10/01 00:28:35;;;;;;;;;;;;;;;18.09;39.35;100687.41;5072418;28;20660;-63
2023/10/01 00:31:02;;;;;;;;;;;;;;;18.03;39.43;100691.03;5071476;28;19912;-63
2023/10/01 00:33:27;;;;;;;;;;;;;;;17.98;39.28;100691.78;5070853;28;19948;-63
2023/10/01 00:35:56;;;;;;;;;;;;;;;17.94;39.31;100685.16;5073744;28;19947;-64
2023/10/01 00:38:21;;;;;;;;;;;;;;;17.92;39.70;100687.28;5072570;28;19916;-63
2023/10/01 00:40:49;;;;;;;;;;;;;;;17.90;39.35;100688.56;5077175;28;20004;-62
2023/10/01 00:43:14;;;;;;;;;;;;;;;17.86;39.54;100688.22;5075528;28;19924;-63
2023/10/01 00:45:39;;;;;;;;;;;;;;;17.81;39.49;100693.50;5074156;28;19916;-65
2023/10/01 00:48:06;;;;;;;;;;;;;;;17.78;39.20;100685.84;5076597;28;19912;-66
2023/10/01 00:50:32;;;;;;;;;;;;;;;17.75;39.74;100683.59;5075232;28;19995;-65
2023/10/01 00:52:58;;;;;;;;;;;;;;;17.72;39.73;100686.78;5077433;28;20336;-66
2023/10/01 00:55:23;;;;;;;;;;;;;;;17.71;39.96;100682.41;5080261;28;19912;-64
2023/10/01 00:57:49;;;;;;;;;;;;;;;17.70;39.73;100683.47;5075967;28;19965;-63
2023/10/01 01:00:16;;;;;;;;;;;;;;;17.66;40.00;100683.09;5056189;28;20015;-64
2023/10/01 01:02:57;;;;;;;;;;;;;;;17.66;40.49;100683.09;5058130;28;19912;-64
2023/10/01 01:05:34;;;;;;;;;;;;;;;17.66;40.25;100688.53;5076628;28;19917;-64
2023/10/01 01:08:02;;;;;;;;;;;;;;;17.66;40.59;100685.00;5074310;28;19925;-64
2023/10/01 01:10:31;;;;;;;;;;;;;;;17.64;41.40;100684.41;5075705;28;19948;-64
2023/10/01 01:12:58;;;;;;;;;;;;;;;17.68;41.25;100688.31;5076500;28;19999;-65
2023/10/01 01:15:23;;;;;;;;;;;;;;;17.69;41.43;100688.06;5074648;28;19912;-65
2023/10/01 01:17:50;;;;;;;;;;;;;;;17.69;41.58;100698.13;5082934;28;20064;-67
2023/10/01 01:20:16;;;;;;;;;;;;;;;17.67;41.38;100695.63;5076178;28;19965;-67
2023/10/01 01:22:48;;;;;;;;;;;;;;;17.66;40.54;100693.16;5076502;28;19912;-67
2023/10/01 01:25:20;;;;;;;;;;;;;;;17.67;40.90;100697.53;5094968;28;19916;-67
2023/10/01 01:27:48;;;;;;;;;;;;;;;17.64;41.13;100696.09;5097269;28;20276;-67
2023/10/01 01:30:18;;;;;;;;;;;;;;;17.63;40.38;100697.16;5097504;28;19995;-67
2023/10/01 01:32:45;;;;;;;;;;;;;;;17.58;40.98;100702.47;5097649;28;19935;-68
2023/10/01 01:35:10;;;;;;;;;;;;;;;17.53;40.84;100700.47;5097323;28;19912;-67
2023/10/01 01:37:47;;;;;;;;;;;;;;;17.48;41.11;100700.34;5087343;28;19919;-68
2023/10/01 01:40:36;;;;;;;;;;;;;;;17.46;41.02;100707.03;5076833;28;19916;-68
2023/10/01 01:43:04;;;;;;;;;;;;;;;17.40;41.23;100698.78;5076661;28;19948;-67
2023/10/01 01:45:32;;;;;;;;;;;;;;;17.38;41.07;100698.19;5076747;28;20435;-67
2023/10/01 01:48:00;;;;;;;;;;;;;;;17.37;41.43;100701.97;5075076;28;20353;-69
2023/10/01 01:50:31;;;;;;;;;;;;;;;17.38;41.61;100700.06;5076150;28;19969;-67
2023/10/01 01:52:57;;;;;;;;;;;;;;;17.34;41.55;100696.16;5076271;28;20405;-69
2023/10/01 01:55:23;;;;;;;;;;;;;;;17.32;41.72;100692.88;5081126;28;20003;-67
2023/10/01 02:00:34;;;;;;;;;;;;;;;17.28;41.63;100697.09;5096639;28;19966;-69
2023/10/01 02:03:02;;;;;;;;;;;;;;;17.28;41.63;100699.81;5081594;28;20292;-68
2023/10/01 02:05:28;;;;;;;;;;;;;;;17.25;41.29;100708.41;5077239;28;19916;-66
2023/10/01 02:07:54;;;;;;;;;;;;;;;17.25;41.79;100705.72;5077371;28;19936;-67
2023/10/01 02:10:20;;;;;;;;;;;;;;;17.25;41.90;100708.41;5077900;28;19916;-68
2023/10/01 02:12:47;;;;;;;;;;;;;;;17.18;41.29;100711.25;5078133;28;19918;-68
2023/10/01 02:15:13;;;;;;;;;;;;;;;17.18;41.55;100708.53;5078018;28;20284;-68
2023/10/01 02:17:41;;;;;;;;;;;;;;;17.22;41.83;100709.72;5085668;28;20277;-68
2023/10/01 02:20:21;;;;;;;;;;;;;;;17.21;41.56;100711.59;5077843;28;19912;-68
2023/10/01 02:22:48;;;;;;;;;;;;;;;17.19;41.72;100708.28;5077091;28;19913;-68
2023/10/01 02:25:16;;;;;;;;;;;;;;;17.18;41.31;100714.78;5095963;28;19916;-67
2023/10/01 02:27:46;;;;;;;;;;;;;;;17.17;41.67;100718.53;5097042;28;19912;-67
2023/10/01 02:30:14;;;;;;;;;;;;;;;17.14;41.42;100721.75;5097062;28;19951;-68
2023/10/01 02:32:49;;;;;;;;;;;;;;;17.06;41.60;100705.78;5096309;28;19912;-68
2023/10/01 02:35:35;;;;;;;;;;;;;;;17.01;41.67;100722.75;5096188;28;20534;-67
2023/10/01 02:38:08;;;;;;;;;;;;;;;16.94;41.49;100711.16;5086400;28;19912;-67
2023/10/01 02:40:37;;;;;;;;;;;;;;;16.88;41.52;100716.66;5075605;28;19920;-68
2023/10/01 02:43:09;;;;;;;;;;;;;;;16.80;41.49;100713.19;5076154;28;20262;-68
2023/10/01 02:45:36;;;;;;;;;;;;;;;16.77;41.35;100712.81;5076125;28;19920;-67
2023/10/01 02:48:13;;;;;;;;;;;;;;;16.80;41.81;100715.88;5057815;28;19943;-67
2023/10/01 02:50:38;;;;;;;;;;;;;;;16.77;41.68;100715.50;5075693;28;19912;-67
2023/10/01 02:53:03;;;;;;;;;;;;;;;16.70;41.13;100715.63;5075974;28;19919;-67
2023/10/01 02:55:29;;;;;;;;;;;;;;;16.75;41.83;100709.50;5074807;28;20335;-67
2023/10/01 02:58:01;;;;;;;;;;;;;;;16.76;41.66;100714.69;5058809;28;19916;-68
2023/10/01 03:00:31;;;;;;;;;;;;;;;16.76;41.75;100719.31;5077155;28;19919;-68
2023/10/01 03:02:58;;;;;;;;;;;;;;;16.68;41.54;100717.72;5076501;28;19955;-68
2023/10/01 03:07:52;;;;;;;;;;;;;;;16.57;41.82;100723.91;5075525;28;19918;-67
2023/10/01 03:10:26;;;;;;;;;;;;;;;16.54;42.00;100727.91;5076227;28;20331;-68
2023/10/01 03:12:58;;;;;;;;;;;;;;;16.53;42.18;100728.97;5075345;28;20372;-68
2023/10/01 03:15:24;;;;;;;;;;;;;;;16.53;42.06;100730.81;5057489;28;19912;-67
2023/10/01 03:17:57;;;;;;;;;;;;;;;16.58;42.28;100734.53;5095357;28;19912;-68
2023/10/01 03:28:35;;;;;;;;;;;;;;;16.45;42.22;100738.25;5075587;28;19958;-68
2023/10/01 03:31:06;;;;;;;;;;;;;;;16.43;42.07;100739.50;5057156;28;20376;-68
2023/10/01 03:33:37;;;;;;;;;;;;;;;16.42;42.20;100746.00;5075423;28;19920;-68
2023/10/01 03:36:05;;;;;;;;;;;;;;;16.44;42.38;100752.00;5075396;28;19956;-68
2023/10/01 03:38:32;;;;;;;;;;;;;;;16.38;42.18;100748.31;5075507;28;20362;-68
2023/10/01 03:41:02;;;;;;;;;;;;;;;16.33;41.83;100753.59;5075127;28;20268;-68
2023/10/01 03:43:37;;;;;;;;;;;;;;;16.29;42.09;100751.53;5074945;28;19916;-67
2023/10/01 03:46:13;;;;;;;;;;;;;;;16.29;42.29;100759.66;5075198;28;19928;-68
2023/10/01 03:49:00;;;;;;;;;;;;;;;16.24;42.15;100757.63;5057773;28;19920;-67
2023/10/01 03:54:19;;;;;;;;;;;;;;;16.18;42.16;100758.53;5074360;28;19919;-68
2023/10/01 03:56:47;;;;;;;;;;;;;;;16.16;42.46;100763.34;5074634;28;20389;-67
2023/10/01 03:59:16;;;;;;;;;;;;;;;16.14;42.31;100757.31;5074835;28;20285;-67
2023/10/01 04:01:58;;;;;;;;;;;;;;;16.11;42.51;100763.19;5074588;28;19935;-67
2023/10/01 04:04:28;;;;;;;;;;;;;;;16.12;42.89;100772.97;5040020;28;19951;-68
2023/10/01 04:06:58;;;;;;;;;;;;;;;16.08;42.41;100771.75;5074723;28;19912;-68
2023/10/01 04:09:26;;;;;;;;;;;;;;;16.04;42.27;100776.78;5074156;28;20381;-68
2023/10/01 04:12:18;;;;;;;;;;;;;;;16.02;42.46;100770.75;5073934;28;20400;-68
2023/10/01 04:14:48;;;;;;;;;;;;;;;16.01;42.52;100775.38;5074381;28;19912;-68
2023/10/01 04:17:16;;;;;;;;;;;;;;;15.98;42.18;100778.50;5090012;28;19912;-67
2023/10/01 04:19:43;;;;;;;;;;;;;;;15.93;42.31;100772.09;5095368;28;19912;-67
2023/10/01 04:22:09;;;;;;;;;;;;;;;15.89;42.44;100781.72;5094896;28;19959;-68
2023/10/01 04:24:35;;;;;;;;;;;;;;;15.85;41.96;100784.84;5063651;28;19966;-67
2023/10/01 04:27:18;;;;;;;;;;;;;;;15.83;42.66;100783.44;5074924;28;19916;-67
2023/10/01 04:29:55;;;;;;;;;;;;;;;15.89;42.88;100795.25;5075051;28;19920;-67
2023/10/01 04:32:23;;;;;;;;;;;;;;;15.98;42.90;100797.47;5075138;28;19912;-67
2023/10/01 04:34:49;;;;;;;;;;;;;;;15.98;42.59;100797.47;5075110;28;19919;-68
2023/10/01 04:37:31;;;;;;;;;;;;;;;15.92;42.06;100800.25;5074516;28;19920;-68
2023/10/01 04:39:57;;;;;;;;;;;;;;;15.84;42.09;100813.00;5074392;28;19924;-68
2023/10/01 04:42:22;;;;;;;;;;;;;;;15.85;42.67;100813.84;5074225;28;19913;-68
2023/10/01 04:44:47;;;;;;;;;;;;;;;15.84;42.89;100810.28;5074559;28;19916;-68
2023/10/01 04:47:31;;;;;;;;;;;;;;;15.79;42.51;100807.41;5056448;28;19913;-68
2023/10/01 04:49:56;;;;;;;;;;;;;;;15.79;42.58;100820.13;5074732;28;19913;-68
2023/10/01 04:52:24;;;;;;;;;;;;;;;15.78;42.63;100815.75;5074351;28;19919;-68
2023/10/01 04:54:49;;;;;;;;;;;;;;;15.75;42.75;100818.88;5040996;28;19912;-68
2023/10/01 04:57:16;;;;;;;;;;;;;;;15.73;42.95;100826.38;5094843;28;19935;-68
2023/10/01 04:59:56;;;;;;;;;;;;;;;15.67;42.33;100831.63;5094772;28;19959;-68
2023/10/01 05:02:22;;;;;;;;;;;;;;;15.68;43.14;100830.56;5063739;28;20419;-68
2023/10/01 05:04:47;;;;;;;;;;;;;;;15.75;43.14;100824.31;5054456;28;19916;-68
2023/10/01 05:07:15;;;;;;;;;;;;;;;15.73;42.72;100829.94;5071368;28;19913;-68
2023/10/01 05:09:42;;;;;;;;;;;;;;;15.72;42.83;100827.44;5074225;28;19921;-68
2023/10/01 05:12:09;;;;;;;;;;;;;;;15.66;42.99;100829.13;5074433;28;19974;-68
2023/10/01 05:14:52;;;;;;;;;;;;;;;15.68;43.36;100840.59;5074317;28;19975;-68
2023/10/01 05:17:17;;;;;;;;;;;;;;;15.62;42.79;100838.72;5089856;28;19920;-68
2023/10/01 05:19:43;;;;;;;;;;;;;;;15.61;42.88;100842.50;5094274;28;19913;-68
2023/10/01 05:22:08;;;;;;;;;;;;;;;15.59;42.94;100834.59;5076373;28;20289;-68
2023/10/01 05:24:39;;;;;;;;;;;;;;;15.56;42.79;100835.00;5084305;28;19912;-68
2023/10/01 05:27:09;;;;;;;;;;;;;;;15.60;43.05;100840.81;5076993;28;19947;-68
2023/10/01 05:29:35;;;;;;;;;;;;;;;15.54;42.69;100837.09;5077424;28;19916;-68
2023/10/01 05:32:01;;;;;;;;;;;;;;;15.50;42.82;100838.59;5076887;28;19912;-68
2023/10/01 05:34:28;;;;;;;;;;;;;;;15.46;42.90;100840.91;5058793;28;19913;-68
2023/10/01 05:37:08;;;;;;;;;;;;;;;15.52;43.09;100841.91;5076580;28;19916;-68
2023/10/01 05:39:54;;;;;;;;;;;;;;;15.57;43.13;100843.97;5076769;28;19921;-68
2023/10/01 05:42:19;;;;;;;;;;;;;;;15.54;43.09;100845.22;5077091;28;20015;-68
2023/10/01 05:44:45;;;;;;;;;;;;;;;15.58;43.31;100843.78;5077447;28;19978;-68
2023/10/01 05:47:11;;;;;;;;;;;;;;;15.61;43.11;100848.72;5077148;28;19920;-68
2023/10/01 05:49:49;;;;;;;;;;;;;;;15.59;43.21;100850.00;5077140;28;20011;-68
2023/10/01 05:52:14;;;;;;;;;;;;;;;15.52;42.96;100850.03;5077326;28;19947;-68
2023/10/01 05:54:50;;;;;;;;;;;;;;;15.55;43.43;100854.22;5076891;28;20305;-68
2023/10/01 05:57:16;;;;;;;;;;;;;;;15.55;43.49;100863.16;5097695;28;19919;-68
2023/10/01 05:59:41;;;;;;;;;;;;;;;15.55;43.49;100857.72;5097496;28;20272;-68
2023/10/01 06:02:07;;;;;;;;;;;;;;;15.55;43.52;100862.31;5089564;28;19912;-68
2023/10/01 06:04:32;;;;;;;;;;;;;;;15.57;43.56;100852.09;5077574;28;20390;-68
2023/10/01 06:07:02;;;;;;;;;;;;;;;15.60;43.63;100862.47;5077618;28;19912;-68
2023/10/01 06:09:33;;;;;;;;;;;;;;;15.65;43.39;100859.97;5076851;28;19921;-68
2023/10/01 06:12:03;;;;;;;;;;;;;;;15.66;43.15;100864.34;5043085;28;19912;-67
2023/10/01 06:14:41;;;;;;;;;;;;;;;15.61;42.97;100864.97;5076914;28;20322;-68
2023/10/01 06:17:08;;;;;;;;;;;;;;;15.54;42.76;100864.19;5091001;28;19979;-68
2023/10/01 06:19:34;;;;;;;;;;;;;;;15.53;42.96;100869.84;5096979;28;19920;-68
2023/10/01 06:22:12;;;;;;;;;;;;;;;15.50;43.17;100871.09;5096323;28;19931;-68
2023/10/01 06:24:43;;;;;;;;;;;;;;;15.48;42.87;100870.47;5090422;28;20440;-68
2023/10/01 06:27:09;;;;;;;;;;;;;;;15.49;43.16;100877.56;5078998;28;19912;-68
2023/10/01 06:29:44;;;;;;;;;;;;;;;15.46;42.79;100877.97;5078746;28;19912;-68
2023/10/01 06:32:09;;;;;;;;;;;;;;;15.45;43.23;100877.16;5096642;28;19958;-68
2023/10/01 06:34:39;;;;;;;;;;;;;;;15.45;43.01;100882.56;5078268;28;19916;-68
2023/10/01 06:37:05;;;;;;;;;;;;;;;15.44;43.38;100880.06;5082281;28;20433;-68
2023/10/01 06:39:32;;;;;;;;;;;;;;;15.45;43.37;100885.28;5076456;28;20278;-68
2023/10/01 06:42:18;;;;;;;;;;;;;;;15.47;43.42;100890.44;5076460;28;19912;-68
2023/10/01 06:44:43;;;;;;;;;;;;;;;15.49;43.42;100886.50;5075842;28;19966;-68
2023/10/01 06:47:15;;;;;;;;;;;;;;;15.54;43.37;100885.84;5076181;28;19913;-68
2023/10/01 06:49:56;;;;;;;;;;;;;;;15.55;43.34;100890.22;5076612;28;19912;-68
2023/10/01 06:52:23;;;;;;;;;;;;;;;15.63;43.69;100892.66;5076288;28;20004;-68
2023/10/01 06:54:49;;;;;;;;;;;;;;;15.72;43.67;100895.97;5076589;28;20050;-67
2023/10/01 06:57:19;;;;;;;;;;;;;;;15.76;43.77;100889.09;5096199;28;19964;-68
2023/10/01 06:59:45;;;;;;;;;;;;;;;15.77;43.32;100898.88;5078807;28;19916;-68
2023/10/01 07:02:12;;;;;;;;;;;;;;;15.83;43.68;100900.72;5067454;28;19962;-68
2023/10/01 07:04:37;;;;;;;;;;;;;;;15.87;43.44;100903.81;5037899;28;20377;-68
2023/10/01 07:07:20;;;;;;;;;;;;;;;15.86;43.64;100907.56;5055355;28;19962;-68
2023/10/01 07:09:45;;;;;;;;;;;;;;;15.90;43.71;100911.50;5055413;28;19947;-67
2023/10/01 07:12:10;;;;;;;;;;;;;;;15.92;43.62;100912.13;5055931;28;20440;-68
2023/10/01 07:14:38;;;;;;;;;;;;;;;15.95;43.50;100917.09;5055593;28;19917;-68
2023/10/01 07:17:13;;;;;;;;;;;;;;;16.01;43.47;100921.66;5082531;28;19989;-67
2023/10/01 07:19:40;;;;;;;;;;;;;;;16.09;43.61;100917.03;5082980;28;19912;-68
2023/10/01 07:22:08;;;;;;;;;;;;;;;16.17;43.50;100928.41;5057544;28;19920;-68
2023/10/01 07:24:34;;;;;;;;;;;;;;;16.21;43.48;100926.09;5056982;28;19981;-68
2023/10/01 07:27:06;;;;;;;;;;;;;;;16.22;43.34;100923.16;5075448;28;20358;-68
2023/10/01 07:29:35;;;;;;;;;;;;;;;16.28;43.49;100926.06;5075471;28;19912;-68
2023/10/01 07:32:01;;;;;;;;;;;;;;;16.30;43.57;100924.78;5075910;28;19965;-68
2023/10/01 07:34:26;;;;;;;;;;;;;;;16.35;43.28;100924.94;5075344;28;20362;-68
2023/10/01 07:36:53;;;;;;;;;;;;;;;16.38;43.51;100924.50;5075457;28;19919;-68
2023/10/01 07:39:21;;;;;;;;;;;;;;;16.45;43.34;100924.44;5075126;28;19913;-68
2023/10/01 07:41:48;;;;;;;;;;;;;;;16.49;43.53;100936.50;5075396;28;19972;-68
2023/10/01 07:44:15;;;;;;;;;;;;;;;16.51;43.38;100934.44;5075326;28;20361;-68
2023/10/01 07:46:40;;;;;;;;;;;;;;;16.56;43.50;100931.03;5074303;28;20254;-68
2023/10/01 07:49:08;;;;;;;;;;;;;;;16.58;43.28;100927.03;5074712;28;19916;-68
2023/10/01 07:51:38;;;;;;;;;;;;;;;16.67;42.99;100922.16;5057079;28;19912;-68
2023/10/01 07:54:10;;;;;;;;;;;;;;;16.65;43.23;100914.25;5074486;28;20010;-68
2023/10/01 07:56:50;;;;;;;;;;;;;;;16.72;43.00;100918.81;5074781;28;19923;-68
2023/10/01 08:01:45;;;;;;;;;;;;;;;16.81;43.25;100917.47;5075457;28;19912;-68
2023/10/01 08:04:50;;;;;;;;;;;;;;;16.86;43.28;100922.22;5075238;28;19934;-68
2023/10/01 08:07:03;;;;;;;;;;;;;;;16.93;42.71;100923.00;5075625;28;19917;-68
2023/10/01 08:09:31;;;;;;;;;;;;;;;16.96;43.09;100919.84;5075363;28;19921;-68
2023/10/01 08:12:05;;;;;;;;;;;;;;;17.00;43.00;100919.16;5075051;28;19936;-68
2023/10/01 08:14:33;;;;;;;;;;;;;;;17.02;43.29;100929.78;5075365;28;19912;-68
2023/10/01 08:17:00;;;;;;;;;;;;;;;17.04;43.66;100916.81;5088019;28;19935;-68
2023/10/01 08:19:41;;;;;;;;;;;;;;;17.06;43.45;100928.28;5073192;28;20379;-66
2023/10/01 08:22:13;;;;;;;;;;;;;;;17.11;42.90;100922.19;5048601;28;19948;-67
2023/10/01 08:24:39;;;;;;;;;;;;;;;17.19;42.53;100924.59;5082853;28;20376;-67
2023/10/01 08:27:04;;;;;;;;;;;;;;;17.24;42.69;100919.31;5095407;28;19969;-67
2023/10/01 08:29:59;;;;;;;;;;;;;;;17.29;42.57;100919.47;5081404;28;19978;-68
2023/10/01 08:32:15;;;;;;;;;;;;;;;17.38;42.69;100914.56;5056387;28;20008;-68
2023/10/01 08:37:31;;;;;;;;;;;;;;;17.52;42.25;100918.75;5074804;28;19916;-68
2023/10/01 08:39:56;;;;;;;;;;;;;;;17.57;42.23;100918.91;5067143;28;19966;-67
2023/10/01 08:42:28;;;;;;;;;;;;;;;17.68;41.83;100920.03;5065624;28;19912;-67
2023/10/01 08:44:54;;;;;;;;;;;;;;;17.74;41.76;100910.13;5066994;28;20352;-67
2023/10/01 08:50:15;;;;;;;;;;;;;;;17.83;42.28;100911.47;5074522;28;19920;-68
2023/10/01 08:52:52;;;;;;;;;;;;;;;17.91;42.08;100913.88;5064482;28;19913;-68
2023/10/01 08:55:17;;;;;;;;;;;;;;;17.92;41.93;100915.56;5074155;28;20352;-68
2023/10/01 08:57:45;;;;;;;;;;;;;;;18.01;42.03;100915.22;5077361;28;20050;-68
2023/10/01 09:00:17;;;;;;;;;;;;;;;18.09;41.84;100917.59;5077841;28;19913;-68
2023/10/01 09:02:43;;;;;;;;;;;;;;;18.07;41.38;100917.84;5065235;28;19913;-67
2023/10/01 09:05:09;;;;;;;;;;;;;;;18.17;41.41;100911.81;5058022;28;19923;-67
2023/10/01 09:07:40;;;;;;;;;;;;;;;18.23;41.36;100919.03;5057819;28;19917;-67
2023/10/01 09:10:06;;;;;;;;;;;;;;;18.29;41.66;100920.81;5062506;28;20036;-68
2023/10/01 09:12:34;;;;;;;;;;;;;;;18.32;41.40;100920.34;5069584;28;19912;-68
2023/10/01 09:14:59;;;;;;;;;;;;;;;18.41;40.58;100922.75;5066772;28;19913;-67
2023/10/01 09:17:25;;;;;;;;;;;;;;;18.43;40.80;100920.63;5073882;28;21216;-68
2023/10/01 09:19:51;;;;;;;;;;;;;;;18.47;40.90;100927.25;5067452;28;19924;-68
2023/10/01 09:22:22;;;;;;;;;;;;;;;18.52;40.70;100924.66;5068750;28;20380;-68
2023/10/01 09:25:01;;;;;;;;;;;;;;;18.62;40.33;100927.59;5072315;28;19913;-67
2023/10/01 09:27:30;;;;;;;;;;;;;;;18.70;40.74;100930.00;5067543;28;19980;-68
2023/10/01 09:32:52;;;;;;;;;;;;;;;18.81;40.11;100939.22;5067827;28;19952;-68
2023/10/01 09:35:30;;;;;;;;;;;;;;;18.93;40.72;100928.34;5051404;28;19912;-68
2023/10/01 09:38:10;;;;;;;;;;;;;;;19.03;40.54;100931.28;5065747;28;19912;-67
2023/10/01 09:40:56;;;;;;;;;;;;;;;19.09;40.06;100930.34;5068832;28;19917;-68
2023/10/01 09:43:27;;;;;;;;;;;;;;;19.13;40.34;100934.25;5067873;28;19922;-68
2023/10/01 09:45:53;;;;;;;;;;;;;;;19.14;39.72;100941.34;5067077;28;19923;-68
2023/10/01 09:48:35;;;;;;;;;;;;;;;19.14;39.19;100943.25;5065630;28;19913;-68
2023/10/01 09:51:08;;;;;;;;;;;;;;;19.30;39.07;100941.69;5049692;28;19912;-66
2023/10/01 09:53:44;;;;;;;;;;;;;;;19.49;38.45;100940.44;5067445;28;19912;-68
2023/10/01 09:56:26;;;;;;;;;;;;;;;19.48;37.44;100943.41;5069600;28;19912;-68
2023/10/01 09:58:58;;;;;;;;;;;;;;;19.61;37.48;100945.03;5066264;28;19944;-67
2023/10/01 10:01:27;;;;;;;;;;;;;;;19.70;36.63;100944.38;5067023;28;19913;-67
2023/10/01 10:03:54;;;;;;;;;;;;;;;19.91;36.84;100942.09;5050869;28;19955;-68
2023/10/01 10:06:24;;;;;;;;;;;;;;;20.00;36.58;100946.09;5065472;28;20274;-67
2023/10/01 10:08:52;;;;;;;;;;;;;;;20.06;36.62;100942.38;5065755;28;20378;-67
2023/10/01 10:11:26;;;;;;;;;;;;;;;20.11;36.74;100938.91;5065823;28;19923;-69
2023/10/01 10:13:57;;;;;;;;;;;;;;;20.24;36.04;100941.31;5068417;28;19913;-68
2023/10/01 10:16:32;;;;;;;;;;;;;;;20.26;35.74;100944.66;5075328;28;19920;-68
2023/10/01 10:19:04;;;;;;;;;;;;;;;20.44;37.16;100942.75;5049511;28;20460;-68
2023/10/01 10:22:04;;;;;;;;;;;;;;;20.56;35.92;100948.97;5069424;28;19964;-68
2023/10/01 10:24:30;;;;;;;;;;;;;;;20.73;35.36;100946.25;5074746;28;19927;-68
2023/10/01 10:27:06;;;;;;;;;;;;;;;20.85;36.52;100944.22;5070835;28;19952;-67
2023/10/01 10:29:47;;;;;;;;;;;;;;;21.01;36.13;100950.75;5061572;28;19912;-67
2023/10/01 10:32:13;;;;;;;;;;;;;;;21.12;34.76;100945.41;5061428;28;19966;-66
2023/10/01 10:34:47;;;;;;;;;;;;;;;21.23;35.85;100944.50;5055246;28;19932;-68
2023/10/01 10:37:47;;;;;;;;;;;;;;;21.34;34.79;100951.75;5055329;28;19919;-67
2023/10/01 10:43:04;;;;;;;;;;;;;;;21.61;35.28;100940.06;5055525;28;19991;-67
2023/10/01 10:46:04;;;;;;;;;;;;;;;21.81;35.26;100940.28;5074635;28;20014;-67
2023/10/01 10:48:21;;;;;;;;;;;;;;;21.97;36.51;100940.44;5052533;28;20479;-67
2023/10/01 10:50:49;;;;;;;;;;;;;;;22.13;35.92;100953.19;5055009;28;19912;-67
2023/10/01 10:53:22;;;;;;;;;;;;;;;22.33;35.81;100949.03;5053487;28;19917;-67
2023/10/01 10:55:54;;;;;;;;;;;;;;;22.50;35.36;100938.78;5072922;28;19916;-70
2023/10/01 10:58:20;;;;;;;;;;;;;;;22.62;32.89;100944.06;5073217;28;19912;-68
2023/10/01 11:00:46;;;;;;;;;;;;;;;22.77;35.82;100946.06;5072351;28;19928;-68
2023/10/01 11:03:12;;;;;;;;;;;;;;;22.90;32.26;100947.53;5074016;28;19919;-68
2023/10/01 11:05:49;;;;;;;;;;;;;;;22.90;30.74;100948.38;5072404;28;19916;-68
2023/10/01 11:08:27;;;;;;;;;;;;;;;22.97;31.00;100942.66;5073750;28;20404;-68
2023/10/01 11:10:56;;;;;;;;;;;;;;;23.24;34.45;100939.00;5073111;28;20277;-62
2023/10/01 11:13:37;;;;;;;;;;;;;;;23.32;31.13;100933.81;5072971;28;20049;-61
2023/10/01 11:16:13;;;;;;;;;;;;;;;23.49;30.96;100943.75;5074117;28;19916;-64
2023/10/01 11:18:41;;;;;;;;;;;;;;;23.43;30.32;100942.09;5068388;28;19968;-62
2023/10/01 11:21:10;;;;;;;;;;;;;;;23.50;29.37;100950.91;5073305;28;20300;-63
2023/10/01 11:23:37;;;;;;;;;;;;;;;23.69;30.55;100949.31;5073999;28;19999;-63
2023/10/01 11:26:26;;;;;;;;;;;;;;;23.75;31.33;100955.63;5073283;28;19920;-63
2023/10/01 11:28:59;;;;;;;;;;;;;;;23.74;30.50;100954.81;5073689;28;19934;-64
2023/10/01 11:31:25;;;;;;;;;;;;;;;23.88;32.86;100959.81;5069684;28;19924;-64
2023/10/01 11:34:03;;;;;;;;;;;;;;;23.91;28.86;100959.28;5073834;28;19913;-64
2023/10/01 11:36:35;;;;;;;;;;;;;;;23.97;28.53;100955.44;5071631;28;19924;-64
2023/10/01 11:39:03;;;;;;;;;;;;;;;24.01;29.32;100958.47;5073526;28;19920;-63
2023/10/01 11:41:38;;;;;;;;;;;;;;;24.10;28.53;100952.16;5070356;28;19917;-64
2023/10/01 11:44:05;;;;;;;;;;;;;;;24.05;28.87;100940.34;5071404;28;19938;-62
2023/10/01 11:46:34;;;;;;;;;;;;;;;24.24;30.22;100941.50;5073230;28;19924;-63
2023/10/01 11:49:06;;;;;;;;;;;;;;;24.31;27.23;100939.31;5071667;28;19912;-67
2023/10/01 11:51:31;;;;;;;;;;;;;;;24.55;29.72;100944.25;5072837;28;19913;-67
2023/10/01 11:53:58;;;;;;;;;;;;;;;24.68;29.04;100946.47;5071904;28;19917;-63
2023/10/01 11:56:23;;;;;;;;;;;;;;;24.71;26.09;100947.81;5088683;28;19924;-64
2023/10/01 11:58:48;;;;;;;;;;;;;;;24.72;26.63;100949.44;5093680;28;19920;-65
2023/10/01 12:01:14;;;;;;;;;;;;;;;24.82;27.55;100943.13;5076004;28;19919;-66
2023/10/01 12:03:40;;;;;;;;;;;;;;;24.84;26.59;100936.25;5073863;28;19920;-66
2023/10/01 12:06:06;;;;;;;;;;;;;;;24.90;26.62;100924.13;5072881;28;20016;-65
2023/10/01 12:08:47;;;;;;;;;;;;;;;24.93;26.35;100912.59;5070487;28;19921;-66
2023/10/01 12:11:27;;;;;;;;;;;;;;;25.01;27.01;100913.94;5072706;28;20293;-66
2023/10/01 12:14:06;;;;;;;;;;;;;;;25.18;28.73;100918.28;5071509;28;19967;-67
2023/10/01 12:16:39;;;;;;;;;;;;;;;25.32;27.77;100915.81;5078703;28;19925;-72
2023/10/01 12:19:26;;;;;;;;;;;;;;;25.30;26.41;100916.91;5051167;28;19916;-67
2023/10/01 12:22:05;;;;;;;;;;;;;;;25.33;26.41;100918.25;5072509;28;20407;-69
2023/10/01 12:24:45;;;;;;;;;;;;;;;25.34;25.85;100913.59;5071751;28;20270;-70
2023/10/01 12:27:11;;;;;;;;;;;;;;;25.36;28.90;100919.63;5054868;28;19970;-69
2023/10/01 12:29:48;;;;;;;;;;;;;;;25.37;27.39;100908.38;5073311;28;19916;-71
2023/10/01 12:32:14;;;;;;;;;;;;;;;25.34;32.44;100913.59;5074992;28;19912;-70
2023/10/01 12:34:43;;;;;;;;;;;;;;;25.35;26.86;100909.72;5079218;28;19920;-68
2023/10/01 12:51:34;;;;;;;;;;;;;;;25.41;31.63;100889.38;5078698;28;19951;-67
2023/10/01 12:54:00;;;;;;;;;;;;;;;25.49;30.23;100897.00;5080151;28;19919;-67
2023/10/01 12:56:44;;;;;;;;;;;;;;;25.53;26.01;100898.09;5085767;28;19916;-67
2023/10/01 12:59:12;;;;;;;;;;;;;;;25.61;25.41;100899.41;5101473;28;19920;-67
2023/10/01 13:01:43;;;;;;;;;;;;;;;25.55;25.14;100897.81;5090496;28;20377;-67
2023/10/01 13:04:25;;;;;;;;;;;;;;;25.47;25.09;100899.22;5074517;28;19917;-67
2023/10/01 13:06:51;;;;;;;;;;;;;;;25.38;25.69;100901.75;5042806;28;19917;-67
2023/10/01 13:12:25;;;;;;;;;;;;;;;25.11;26.06;100905.69;5018750;28;19913;-67
2023/10/01 13:17:43;;;;;;;;;;;;;;;25.02;25.59;100906.53;5043290;28;21644;-67
2023/10/01 13:20:19;;;;;;;;;;;;;;;24.98;25.88;100906.28;5049809;28;19913;-68
2023/10/01 13:22:48;;;;;;;;;;;;;;;25.11;25.56;100916.69;5079113;28;20400;-67
2023/10/01 13:25:18;;;;;;;;;;;;;;;25.06;24.83;100911.19;5078559;28;20290;-67
2023/10/01 13:27:46;;;;;;;;;;;;;;;25.28;24.66;100915.56;5077262;28;19916;-66
2023/10/01 13:30:18;;;;;;;;;;;;;;;25.34;24.77;100905.34;5079027;28;19966;-65
2023/10/01 13:33:10;;;;;;;;;;;;;;;25.34;25.18;100905.34;5077177;28;19912;-66
2023/10/01 13:35:36;;;;;;;;;;;;;;;25.44;24.71;100903.34;5078454;28;20011;-67
2023/10/01 14:11:02;;;;;;;;;;;;;;;24.31;25.62;100876.16;5070979;28;19931;-65
2023/10/01 14:13:34;;;;;;;;;;;;;;;24.23;25.09;100876.69;5074694;28;19912;-67
2023/10/01 14:16:16;;;;;;;;;;;;;;;24.23;25.42;100875.88;5077510;28;20285;-67